createdAt,value
2017-05-13T00:00:13.460Z,1000.28
2017-05-13T00:01:07.452Z,1000.26
2017-05-13T00:02:07.437Z,1000.28
2017-05-13T00:03:02.365Z,1000.25
2017-05-13T00:04:01.901Z,1000.29
2017-05-13T00:04:55.835Z,1000.27
2017-05-13T00:05:56.815Z,1000.28
2017-05-13T00:06:56.309Z,1000.27
2017-05-13T00:07:51.227Z,1000.30
2017-05-13T00:08:56.791Z,1000.31
2017-05-13T00:09:52.147Z,1000.31
2017-05-13T00:10:51.245Z,1000.33
2017-05-13T00:11:45.190Z,1000.33
2017-05-13T00:12:39.161Z,1000.32
2017-05-13T00:13:34.505Z,1000.33
2017-05-13T00:14:33.667Z,1000.39
2017-05-13T00:15:28.610Z,1000.40
2017-05-13T00:16:28.126Z,1000.37
2017-05-13T00:17:28.063Z,1000.37
2017-05-13T00:18:23.044Z,1000.40
2017-05-13T00:19:17.595Z,1000.41
2017-05-13T00:20:12.057Z,1000.39
2017-05-13T00:21:06.617Z,1000.41
2017-05-13T00:22:06.285Z,1000.38
2017-05-13T00:23:00.101Z,1000.37
2017-05-13T00:24:00.054Z,1000.35
2017-05-13T00:25:00.009Z,1000.34
2017-05-13T00:26:00.919Z,1000.31
2017-05-13T00:26:54.464Z,1000.35
2017-05-13T00:27:54.466Z,1000.36
2017-05-13T00:28:49.397Z,1000.29
2017-05-13T00:29:43.933Z,1000.33
2017-05-13T00:30:43.462Z,1000.31
2017-05-13T00:31:37.443Z,1000.28
2017-05-13T00:32:32.396Z,1000.29
2017-05-13T00:33:32.355Z,1000.26
2017-05-13T00:34:25.780Z,1000.26
2017-05-13T00:35:26.074Z,1000.32
2017-05-13T00:36:20.763Z,1000.30
2017-05-13T00:37:20.273Z,1000.31
2017-05-13T00:38:20.191Z,1000.28
2017-05-13T00:39:14.438Z,1000.25
2017-05-13T00:40:08.169Z,1000.25
2017-05-13T00:41:08.078Z,1000.24
2017-05-13T00:41:57.094Z,1000.27
2017-05-13T00:42:51.599Z,1000.25
2017-05-13T00:43:51.097Z,1000.24
2017-05-13T00:44:51.094Z,1000.20
2017-05-13T00:45:46.014Z,1000.20
2017-05-13T00:46:51.505Z,1000.14
2017-05-13T00:47:45.504Z,1000.20
2017-05-13T00:48:40.451Z,1000.17
2017-05-13T00:49:40.002Z,1000.20
2017-05-13T00:50:40.412Z,1000.19
2017-05-13T00:51:45.890Z,1000.16
2017-05-13T00:52:39.824Z,1000.20
2017-05-13T00:53:39.810Z,1000.19
2017-05-13T00:54:28.760Z,1000.18
2017-05-13T00:55:28.267Z,1000.18
2017-05-13T00:56:22.275Z,1000.16
2017-05-13T00:57:23.178Z,1000.12
2017-05-13T00:58:22.724Z,1000.10
2017-05-13T00:59:22.699Z,1000.07
2017-05-13T01:00:17.909Z,1000.06
2017-05-13T01:01:12.458Z,1000.07
2017-05-13T01:02:11.711Z,1000.01
2017-05-13T01:03:11.590Z,1000.00
2017-05-13T01:04:11.582Z,999.99
2017-05-13T01:05:12.884Z,999.95
2017-05-13T01:06:12.024Z,1000.00
2017-05-13T01:07:07.030Z,1000.02
2017-05-13T01:08:12.518Z,1000.00
2017-05-13T01:09:06.524Z,1000.03
2017-05-13T01:10:01.773Z,1000.01
2017-05-13T01:11:00.974Z,1000.00
2017-05-13T01:11:49.890Z,999.96
2017-05-13T01:12:49.400Z,1000.00
2017-05-13T01:13:49.739Z,999.96
2017-05-13T01:14:49.427Z,999.96
2017-05-13T01:15:43.324Z,999.92
2017-05-13T01:16:38.305Z,999.92
2017-05-13T01:17:32.263Z,999.89
2017-05-13T01:18:26.796Z,999.90
2017-05-13T01:19:26.291Z,999.90
2017-05-13T01:20:21.679Z,999.86
2017-05-13T01:21:20.816Z,999.87
2017-05-13T01:22:09.712Z,999.89
2017-05-13T01:23:09.260Z,999.90
2017-05-13T01:24:09.205Z,999.91
2017-05-13T01:25:03.393Z,999.90
2017-05-13T01:26:03.105Z,999.89
2017-05-13T01:26:57.087Z,999.92
2017-05-13T01:27:57.034Z,999.86
2017-05-13T01:28:57.030Z,999.91
2017-05-13T01:29:50.982Z,999.93
2017-05-13T01:30:45.926Z,999.92
2017-05-13T01:31:51.394Z,999.95
2017-05-13T01:32:46.397Z,999.92
2017-05-13T01:33:40.916Z,999.94
2017-05-13T01:34:40.391Z,999.92
2017-05-13T01:35:35.391Z,999.91
2017-05-13T01:36:29.914Z,999.92
2017-05-13T01:37:35.420Z,999.92
2017-05-13T01:38:30.384Z,999.96
2017-05-13T01:39:24.913Z,999.95
2017-05-13T01:40:19.622Z,999.97
2017-05-13T01:41:13.965Z,1000.00
2017-05-13T01:42:13.467Z,1000.00
2017-05-13T01:43:08.406Z,1000.01
2017-05-13T01:44:08.000Z,1000.04
2017-05-13T01:45:08.179Z,1000.03
2017-05-13T01:46:01.879Z,1000.10
2017-05-13T01:46:55.802Z,1000.08
2017-05-13T01:47:49.817Z,1000.14
2017-05-13T01:48:43.748Z,1000.12
2017-05-13T01:49:44.705Z,1000.11
2017-05-13T01:50:50.316Z,1000.18
2017-05-13T01:51:45.199Z,1000.19
2017-05-13T01:52:39.719Z,1000.17
2017-05-13T01:53:39.408Z,1000.21
2017-05-13T01:54:34.203Z,1000.23
2017-05-13T01:55:28.682Z,1000.26
2017-05-13T01:56:28.181Z,1000.25
2017-05-13T01:57:28.170Z,1000.30
2017-05-13T01:58:23.109Z,1000.29
2017-05-13T01:59:22.617Z,1000.33
2017-05-13T02:00:23.023Z,1000.41
2017-05-13T02:01:22.589Z,1000.38
2017-05-13T02:02:11.498Z,1000.36
2017-05-13T02:03:11.005Z,1000.38
2017-05-13T02:04:11.009Z,1000.33
2017-05-13T02:05:06.027Z,1000.36
2017-05-13T02:06:05.496Z,1000.32
2017-05-13T02:06:59.398Z,1000.34
2017-05-13T02:07:54.405Z,1000.33
2017-05-13T02:08:53.904Z,1000.35
2017-05-13T02:09:48.867Z,1000.35
2017-05-13T02:10:37.411Z,1000.35
2017-05-13T02:11:24.945Z,1000.38
2017-05-13T02:12:07.914Z,1000.34
2017-05-13T02:13:07.405Z,1000.30
2017-05-13T02:14:07.378Z,1000.33
2017-05-13T02:15:01.693Z,1000.28
2017-05-13T02:15:50.318Z,1000.31
2017-05-13T02:16:37.789Z,1000.31
2017-05-13T02:17:20.782Z,1000.34
2017-05-13T02:18:09.293Z,1000.33
2017-05-13T02:18:56.827Z,1000.30
2017-05-13T02:19:39.839Z,1000.33
2017-05-13T02:20:27.515Z,1000.33
2017-05-13T02:21:10.361Z,1000.35
2017-05-13T02:21:57.773Z,1000.35
2017-05-13T02:22:46.814Z,1000.37
2017-05-13T02:23:41.325Z,1000.36
2017-05-13T02:24:29.831Z,1000.37
2017-05-13T02:25:24.469Z,1000.40
2017-05-13T02:26:17.924Z,1000.38
2017-05-13T02:27:01.003Z,1000.39
2017-05-13T02:28:00.368Z,1000.43
2017-05-13T02:28:54.323Z,1000.40
2017-05-13T02:29:42.299Z,1000.41
2017-05-13T02:30:36.276Z,1000.41
2017-05-13T02:31:25.225Z,1000.42
2017-05-13T02:32:13.765Z,1000.42
2017-05-13T02:33:07.261Z,1000.40
2017-05-13T02:33:55.303Z,1000.40
2017-05-13T02:34:49.199Z,1000.38
2017-05-13T02:35:32.304Z,1000.40
2017-05-13T02:36:20.712Z,1000.42
2017-05-13T02:37:08.319Z,1000.45
2017-05-13T02:37:57.159Z,1000.44
2017-05-13T02:38:45.685Z,1000.45
2017-05-13T02:39:33.257Z,1000.43
2017-05-13T02:40:16.274Z,1000.48
2017-05-13T02:41:09.692Z,1000.43
2017-05-13T02:41:57.668Z,1000.43
2017-05-13T02:42:45.679Z,1000.46
2017-05-13T02:43:28.603Z,1000.44
2017-05-13T02:44:23.165Z,1000.42
2017-05-13T02:45:10.683Z,1000.41
2017-05-13T02:45:53.647Z,1000.45
2017-05-13T02:46:41.325Z,1000.44
2017-05-13T02:47:35.115Z,1000.46
2017-05-13T02:48:23.171Z,1000.45
2017-05-13T02:49:11.057Z,1000.47
2017-05-13T02:49:59.035Z,1000.47
2017-05-13T02:50:42.585Z,1000.49
2017-05-13T02:51:29.514Z,1000.47
2017-05-13T02:52:12.479Z,1000.56
2017-05-13T02:53:00.007Z,1000.53
2017-05-13T02:53:49.062Z,1000.54
2017-05-13T02:54:43.494Z,1000.53
2017-05-13T02:55:31.035Z,1000.55
2017-05-13T02:56:19.018Z,1000.53
2017-05-13T02:57:06.914Z,1000.56
2017-05-13T02:57:55.931Z,1000.58
2017-05-13T02:58:44.457Z,1000.54
2017-05-13T02:59:32.024Z,1000.58
2017-05-13T03:00:20.926Z,1000.57
2017-05-13T03:01:09.426Z,1000.58
2017-05-13T03:01:56.944Z,1000.59
2017-05-13T03:02:45.889Z,1000.60
2017-05-13T03:03:33.479Z,1000.59
2017-05-13T03:04:16.426Z,1000.62
2017-05-13T03:05:03.947Z,1000.61
2017-05-13T03:05:52.163Z,1000.62
2017-05-13T03:06:39.867Z,1000.63
2017-05-13T03:07:28.871Z,1000.65
2017-05-13T03:08:16.360Z,1000.66
2017-05-13T03:09:04.367Z,1000.64
2017-05-13T03:09:52.548Z,1000.65
2017-05-13T03:10:40.343Z,1000.63
2017-05-13T03:11:23.259Z,1000.59
2017-05-13T03:12:11.771Z,1000.57
2017-05-13T03:12:59.309Z,1000.59
2017-05-13T03:13:47.261Z,1000.56
2017-05-13T03:14:35.210Z,1000.60
2017-05-13T03:15:24.207Z,1000.58
2017-05-13T03:16:11.747Z,1000.62
2017-05-13T03:16:54.671Z,1000.61
2017-05-13T03:17:42.190Z,1000.69
2017-05-13T03:18:30.213Z,1000.65
2017-05-13T03:19:13.172Z,1000.69
2017-05-13T03:20:06.676Z,1000.69
2017-05-13T03:20:55.638Z,1000.73
2017-05-13T03:21:49.221Z,1000.73
2017-05-13T03:22:43.129Z,1000.78
2017-05-13T03:23:32.077Z,1000.78
2017-05-13T03:24:25.625Z,1000.80
2017-05-13T03:25:19.598Z,1000.82
2017-05-13T03:26:13.513Z,1000.83
2017-05-13T03:27:07.491Z,1000.84
2017-05-13T03:28:01.443Z,1000.90
2017-05-13T03:28:56.467Z,1000.89
2017-05-13T03:29:50.883Z,1000.91
2017-05-13T03:30:45.477Z,1000.90
2017-05-13T03:31:38.979Z,1000.88
2017-05-13T03:32:32.929Z,1000.91
2017-05-13T03:33:21.878Z,1000.89
2017-05-13T03:34:15.382Z,1000.91
2017-05-13T03:35:09.423Z,1000.96
2017-05-13T03:35:57.310Z,1000.95
2017-05-13T03:36:45.283Z,1000.97
2017-05-13T03:37:34.283Z,1000.94
2017-05-13T03:38:28.807Z,1000.96
2017-05-13T03:39:28.319Z,1000.98
2017-05-13T03:40:17.277Z,1000.97
2017-05-13T03:41:11.775Z,1000.97
2017-05-13T03:42:05.300Z,1000.98
2017-05-13T03:42:59.300Z,1000.94
2017-05-13T03:43:59.220Z,1000.98
2017-05-13T03:44:47.192Z,1000.94
2017-05-13T03:45:48.123Z,1000.97
2017-05-13T03:46:42.670Z,1000.98
2017-05-13T03:47:37.166Z,1000.96
2017-05-13T03:48:31.710Z,1000.98
2017-05-13T03:49:25.209Z,1000.98
2017-05-13T03:50:13.195Z,1000.95
2017-05-13T03:51:07.166Z,1000.98
2017-05-13T03:51:56.318Z,1000.98
2017-05-13T03:52:43.701Z,1000.97
2017-05-13T03:53:31.607Z,1000.96
2017-05-13T03:54:20.638Z,1000.93
2017-05-13T03:55:08.150Z,1000.91
2017-05-13T03:55:56.233Z,1000.90
2017-05-13T03:56:44.007Z,1000.91
2017-05-13T03:57:27.476Z,1000.93
2017-05-13T03:58:14.487Z,1000.92
2017-05-13T03:58:57.480Z,1000.92
2017-05-13T03:59:44.996Z,1000.92
2017-05-13T04:00:34.003Z,1000.92
2017-05-13T04:01:21.629Z,1000.93
2017-05-13T04:02:09.525Z,1000.92
2017-05-13T04:02:57.392Z,1000.95
2017-05-13T04:03:40.409Z,1000.98
2017-05-13T04:04:27.959Z,1000.95
2017-05-13T04:05:17.128Z,1000.96
2017-05-13T04:06:04.460Z,1000.98
2017-05-13T04:06:47.387Z,1000.96
2017-05-13T04:07:40.873Z,1000.96
2017-05-13T04:08:29.876Z,1001.01
2017-05-13T04:09:17.422Z,1001.02
2017-05-13T04:10:05.327Z,1000.99
2017-05-13T04:10:48.283Z,1001.07
2017-05-13T04:11:35.883Z,1001.05
2017-05-13T04:12:18.795Z,1001.08
2017-05-13T04:13:06.344Z,1001.07
2017-05-13T04:13:55.298Z,1001.07
2017-05-13T04:14:42.879Z,1001.11
2017-05-13T04:15:30.794Z,1001.06
2017-05-13T04:16:18.784Z,1001.08
2017-05-13T04:17:13.785Z,1001.08
2017-05-13T04:18:02.690Z,1001.08
2017-05-13T04:18:55.808Z,1001.06
2017-05-13T04:19:50.738Z,1001.06
2017-05-13T04:20:38.297Z,1001.04
2017-05-13T04:21:21.602Z,1001.05
2017-05-13T04:22:08.823Z,1001.04
2017-05-13T04:22:51.768Z,1000.98
2017-05-13T04:23:57.249Z,1000.96
2017-05-13T04:24:40.183Z,1000.95
2017-05-13T04:25:28.797Z,1001.05
2017-05-13T04:26:16.293Z,1001.04
2017-05-13T04:26:59.280Z,1001.04
2017-05-13T04:27:46.789Z,1001.01
2017-05-13T04:28:35.024Z,1001.02
2017-05-13T04:29:23.689Z,1001.02
2017-05-13T04:30:11.221Z,1001.06
2017-05-13T04:30:59.217Z,1001.06
2017-05-13T04:31:47.148Z,1001.06
2017-05-13T04:32:36.109Z,1001.09
2017-05-13T04:33:23.681Z,1001.08
2017-05-13T04:34:17.690Z,1001.08
2017-05-13T04:35:01.013Z,1001.06
2017-05-13T04:35:54.134Z,1001.06
2017-05-13T04:36:37.085Z,1001.09
2017-05-13T04:37:24.665Z,1001.07
2017-05-13T04:38:24.771Z,1001.09
2017-05-13T04:39:18.513Z,1001.10
2017-05-13T04:40:13.455Z,1001.10
2017-05-13T04:41:08.007Z,1001.09
2017-05-13T04:42:07.514Z,1001.11
2017-05-13T04:43:08.929Z,1001.15
2017-05-13T04:44:07.977Z,1001.19
2017-05-13T04:45:02.475Z,1001.20
2017-05-13T04:46:01.904Z,1001.23
2017-05-13T04:46:56.847Z,1001.25
2017-05-13T04:47:56.489Z,1001.22
2017-05-13T04:48:50.362Z,1001.24
2017-05-13T04:49:51.251Z,1001.26
2017-05-13T04:50:44.975Z,1001.31
2017-05-13T04:51:44.785Z,1001.34
2017-05-13T04:52:38.760Z,1001.35
2017-05-13T04:53:39.689Z,1001.38
2017-05-13T04:54:39.179Z,1001.39
2017-05-13T04:55:33.256Z,1001.43
2017-05-13T04:56:27.188Z,1001.47
2017-05-13T04:57:21.097Z,1001.49
2017-05-13T04:58:15.066Z,1001.51
2017-05-13T04:59:08.988Z,1001.51
2017-05-13T05:00:03.215Z,1001.56
2017-05-13T05:01:02.917Z,1001.49
2017-05-13T05:01:50.905Z,1001.51
2017-05-13T05:02:39.850Z,1001.54
2017-05-13T05:03:27.395Z,1001.52
2017-05-13T05:04:10.388Z,1001.51
2017-05-13T05:04:58.102Z,1001.52
2017-05-13T05:05:45.809Z,1001.57
2017-05-13T05:06:39.774Z,1001.56
2017-05-13T05:07:40.002Z,1001.57
2017-05-13T05:08:34.777Z,1001.58
2017-05-13T05:09:34.236Z,1001.59
2017-05-13T05:10:28.271Z,1001.62
2017-05-13T05:11:22.190Z,1001.62
2017-05-13T05:12:16.277Z,1001.62
2017-05-13T05:13:16.066Z,1001.62
2017-05-13T05:14:10.037Z,1001.66
2017-05-13T05:15:10.072Z,1001.64
2017-05-13T05:16:04.042Z,1001.64
2017-05-13T05:17:04.037Z,1001.65
2017-05-13T05:17:59.004Z,1001.67
2017-05-13T05:18:53.746Z,1001.65
2017-05-13T05:19:52.961Z,1001.67
2017-05-13T05:20:46.899Z,1001.69
2017-05-13T05:21:46.890Z,1001.71
2017-05-13T05:22:40.832Z,1001.72
2017-05-13T05:23:46.810Z,1001.76
2017-05-13T05:24:41.872Z,1001.74
2017-05-13T05:25:41.550Z,1001.73
2017-05-13T05:26:41.444Z,1001.76
2017-05-13T05:27:35.160Z,1001.79
2017-05-13T05:28:29.161Z,1001.82
2017-05-13T05:29:24.557Z,1001.83
2017-05-13T05:30:23.604Z,1001.86
2017-05-13T05:31:17.600Z,1001.89
2017-05-13T05:32:17.593Z,1001.90
2017-05-13T05:33:12.512Z,1001.88
2017-05-13T05:34:17.998Z,1001.91
2017-05-13T05:35:12.005Z,1001.91
2017-05-13T05:36:11.979Z,1001.96
2017-05-13T05:37:01.003Z,1001.93
2017-05-13T05:38:00.399Z,1001.93
2017-05-13T05:39:01.397Z,1001.95
2017-05-13T05:39:55.913Z,1001.99
2017-05-13T05:40:50.459Z,1001.94
2017-05-13T05:41:45.253Z,1001.96
2017-05-13T05:42:44.551Z,1001.96
2017-05-13T05:43:39.444Z,1001.98
2017-05-13T05:44:38.966Z,1002.00
2017-05-13T05:45:39.962Z,1002.01
2017-05-13T05:46:34.885Z,1002.05
2017-05-13T05:47:28.983Z,1002.03
2017-05-13T05:48:23.501Z,1002.09
2017-05-13T05:49:23.310Z,1002.01
2017-05-13T05:50:17.007Z,1002.06
2017-05-13T05:51:16.946Z,1002.04
2017-05-13T05:52:11.912Z,1002.06
2017-05-13T05:53:11.405Z,1002.06
2017-05-13T05:54:06.732Z,1002.03
2017-05-13T05:55:01.382Z,1002.08
2017-05-13T05:56:00.443Z,1002.16
2017-05-13T05:57:01.732Z,1002.14
2017-05-13T05:57:55.884Z,1002.11
2017-05-13T05:58:50.487Z,1002.14
2017-05-13T05:59:44.994Z,1002.13
2017-05-13T06:00:44.524Z,1002.17
2017-05-13T06:01:39.516Z,1002.20
2017-05-13T06:02:34.117Z,1002.18
2017-05-13T06:03:28.486Z,1002.20
2017-05-13T06:04:22.088Z,1002.26
2017-05-13T06:05:16.136Z,1002.27
2017-05-13T06:06:04.989Z,1002.27
2017-05-13T06:06:53.491Z,1002.25
2017-05-13T06:07:46.986Z,1002.24
2017-05-13T06:08:46.994Z,1002.30
2017-05-13T06:09:41.969Z,1002.33
2017-05-13T06:10:29.520Z,1002.32
2017-05-13T06:11:17.440Z,1002.33
2017-05-13T06:12:05.446Z,1002.33
2017-05-13T06:12:48.369Z,1002.35
2017-05-13T06:13:35.926Z,1002.41
2017-05-13T06:14:29.969Z,1002.41
2017-05-13T06:15:17.945Z,1002.43
2017-05-13T06:16:06.789Z,1002.40
2017-05-13T06:17:01.548Z,1002.39
2017-05-13T06:17:54.849Z,1002.40
2017-05-13T06:18:48.798Z,1002.42
2017-05-13T06:19:31.856Z,1002.40
2017-05-13T06:20:26.545Z,1002.39
2017-05-13T06:21:19.859Z,1002.41
2017-05-13T06:22:02.862Z,1002.44
2017-05-13T06:22:50.367Z,1002.42
2017-05-13T06:23:39.440Z,1002.41
2017-05-13T06:24:32.807Z,1002.43
2017-05-13T06:25:33.063Z,1002.41
2017-05-13T06:26:26.874Z,1002.44
2017-05-13T06:27:21.811Z,1002.43
2017-05-13T06:28:16.277Z,1002.44
2017-05-13T06:29:10.785Z,1002.44
2017-05-13T06:30:05.699Z,1002.48
2017-05-13T06:31:05.570Z,1002.48
2017-05-13T06:31:58.999Z,1002.46
2017-05-13T06:32:58.740Z,1002.47
2017-05-13T06:33:47.665Z,1002.47
2017-05-13T06:34:42.267Z,1002.47
2017-05-13T06:35:30.852Z,1002.49
2017-05-13T06:36:19.307Z,1002.50
2017-05-13T06:37:06.861Z,1002.51
2017-05-13T06:37:49.804Z,1002.50
2017-05-13T06:38:38.348Z,1002.55
2017-05-13T06:39:25.903Z,1002.58
2017-05-13T06:40:19.905Z,1002.60
2017-05-13T06:41:14.894Z,1002.65
2017-05-13T06:42:09.583Z,1002.70
2017-05-13T06:43:03.126Z,1002.73
2017-05-13T06:43:56.796Z,1002.71
2017-05-13T06:44:51.115Z,1002.70
2017-05-13T06:45:40.081Z,1002.74
2017-05-13T06:46:33.272Z,1002.70
2017-05-13T06:47:21.538Z,1002.72
2017-05-13T06:48:15.199Z,1002.71
2017-05-13T06:49:04.346Z,1002.74
2017-05-13T06:49:57.854Z,1002.75
2017-05-13T06:50:47.095Z,1002.77
2017-05-13T06:51:47.238Z,1002.77
2017-05-13T06:52:35.766Z,1002.82
2017-05-13T06:53:29.528Z,1002.83
2017-05-13T06:54:29.609Z,1002.85
2017-05-13T06:55:29.404Z,1002.81
2017-05-13T06:56:30.182Z,1002.84
2017-05-13T06:57:19.045Z,1002.85
2017-05-13T06:58:13.247Z,1002.86
2017-05-13T06:59:01.758Z,1002.85
2017-05-13T07:00:01.788Z,1002.83
2017-05-13T07:00:55.437Z,1002.89
2017-05-13T07:01:55.220Z,1002.96
2017-05-13T07:02:44.375Z,1002.96
2017-05-13T07:03:33.005Z,1003.01
2017-05-13T07:04:27.241Z,1002.97
2017-05-13T07:05:26.800Z,1003.00
2017-05-13T07:06:15.766Z,1003.02
2017-05-13T07:07:16.259Z,1003.01
2017-05-13T07:08:09.758Z,1003.04
2017-05-13T07:08:58.758Z,1003.07
2017-05-13T07:09:52.674Z,1003.08
2017-05-13T07:10:40.287Z,1003.09
2017-05-13T07:11:35.191Z,1003.08
2017-05-13T07:12:34.768Z,1003.13
2017-05-13T07:13:28.688Z,1003.12
2017-05-13T07:14:29.656Z,1003.16
2017-05-13T07:15:24.223Z,1003.12
2017-05-13T07:16:17.705Z,1003.09
2017-05-13T07:17:06.716Z,1003.13
2017-05-13T07:18:00.224Z,1003.14
2017-05-13T07:18:48.233Z,1003.16
2017-05-13T07:19:38.104Z,1003.13
2017-05-13T07:20:25.697Z,1003.12
2017-05-13T07:21:19.208Z,1003.07
2017-05-13T07:22:13.216Z,1003.10
2017-05-13T07:23:07.190Z,1003.14
2017-05-13T07:24:02.130Z,1003.16
2017-05-13T07:24:55.649Z,1003.12
2017-05-13T07:25:39.067Z,1003.12
2017-05-13T07:26:27.185Z,1003.12
2017-05-13T07:27:21.683Z,1003.16
2017-05-13T07:28:21.209Z,1003.16
2017-05-13T07:29:10.199Z,1003.16
2017-05-13T07:30:05.342Z,1003.17
2017-05-13T07:30:58.294Z,1003.13
2017-05-13T07:31:41.219Z,1003.13
2017-05-13T07:32:40.780Z,1003.13
2017-05-13T07:33:34.759Z,1003.14
2017-05-13T07:34:28.724Z,1003.15
2017-05-13T07:35:22.698Z,1003.17
2017-05-13T07:36:22.841Z,1003.21
2017-05-13T07:37:16.600Z,1003.25
2017-05-13T07:38:11.621Z,1003.25
2017-05-13T07:39:11.103Z,1003.30
2017-05-13T07:40:05.520Z,1003.39
2017-05-13T07:41:00.019Z,1003.41
2017-05-13T07:41:53.524Z,1003.42
2017-05-13T07:42:41.932Z,1003.44
2017-05-13T07:43:30.538Z,1003.41
2017-05-13T07:44:24.029Z,1003.41
2017-05-13T07:45:07.267Z,1003.47
2017-05-13T07:45:54.511Z,1003.50
2017-05-13T07:46:48.496Z,1003.47
2017-05-13T07:47:36.649Z,1003.50
2017-05-13T07:48:19.429Z,1003.49
2017-05-13T07:49:12.898Z,1003.46
2017-05-13T07:50:00.997Z,1003.44
2017-05-13T07:50:43.939Z,1003.45
2017-05-13T07:51:38.463Z,1003.47
2017-05-13T07:52:25.991Z,1003.49
2017-05-13T07:53:20.139Z,1003.48
2017-05-13T07:54:08.860Z,1003.51
2017-05-13T07:55:08.631Z,1003.47
2017-05-13T07:56:08.400Z,1003.54
2017-05-13T07:57:02.356Z,1003.54
2017-05-13T07:57:56.560Z,1003.58
2017-05-13T07:58:56.272Z,1003.59
2017-05-13T07:59:50.553Z,1003.58
2017-05-13T08:00:50.263Z,1003.66
2017-05-13T08:01:44.202Z,1003.71
2017-05-13T08:02:38.204Z,1003.71
2017-05-13T08:03:27.194Z,1003.77
2017-05-13T08:04:20.885Z,1003.74
2017-05-13T08:05:09.078Z,1003.72
2017-05-13T08:05:57.595Z,1003.72
2017-05-13T08:06:46.298Z,1003.74
2017-05-13T08:07:34.882Z,1003.73
2017-05-13T08:08:23.178Z,1003.77
2017-05-13T08:09:23.233Z,1003.71
2017-05-13T08:10:11.688Z,1003.72
2017-05-13T08:11:06.379Z,1003.73
2017-05-13T08:12:05.782Z,1003.74
2017-05-13T08:13:00.722Z,1003.72
2017-05-13T08:13:55.288Z,1003.74
2017-05-13T08:14:48.785Z,1003.75
2017-05-13T08:15:48.770Z,1003.78
2017-05-13T08:16:37.717Z,1003.80
2017-05-13T08:17:32.450Z,1003.74
2017-05-13T08:18:20.803Z,1003.76
2017-05-13T08:19:14.319Z,1003.76
2017-05-13T08:20:09.599Z,1003.71
2017-05-13T08:21:08.830Z,1003.79
2017-05-13T08:22:02.806Z,1003.83
2017-05-13T08:23:02.751Z,1003.82
2017-05-13T08:23:57.851Z,1003.84
2017-05-13T08:24:51.278Z,1003.87
2017-05-13T08:25:40.352Z,1003.90
2017-05-13T08:26:39.771Z,1003.88
2017-05-13T08:27:27.714Z,1003.92
2017-05-13T08:28:21.695Z,1003.93
2017-05-13T08:29:15.667Z,1003.96
2017-05-13T08:30:15.598Z,1003.95
2017-05-13T08:31:09.781Z,1003.97
2017-05-13T08:32:04.571Z,1004.01
2017-05-13T08:32:52.101Z,1004.01
2017-05-13T08:33:46.090Z,1004.07
2017-05-13T08:34:29.038Z,1004.09
2017-05-13T08:35:23.643Z,1004.12
2017-05-13T08:36:23.081Z,1004.12
2017-05-13T08:37:17.219Z,1004.15
2017-05-13T08:38:12.165Z,1004.20
2017-05-13T08:39:00.586Z,1004.20
2017-05-13T08:39:55.492Z,1004.21
2017-05-13T08:40:48.700Z,1004.23
2017-05-13T08:41:43.689Z,1004.20
2017-05-13T08:42:43.107Z,1004.23
2017-05-13T08:43:37.115Z,1004.23
2017-05-13T08:44:26.250Z,1004.18
2017-05-13T08:45:14.611Z,1004.15
2017-05-13T08:46:14.328Z,1004.17
2017-05-13T08:47:08.288Z,1004.20
2017-05-13T08:47:56.312Z,1004.25
2017-05-13T08:48:44.382Z,1004.21
2017-05-13T08:49:38.471Z,1004.21
2017-05-13T08:50:27.238Z,1004.21
2017-05-13T08:51:20.613Z,1004.24
2017-05-13T08:52:08.849Z,1004.21
2017-05-13T08:52:57.819Z,1004.20
2017-05-13T08:53:57.391Z,1004.21
2017-05-13T08:54:51.294Z,1004.17
2017-05-13T08:55:40.297Z,1004.25
2017-05-13T08:56:34.847Z,1004.27
2017-05-13T08:57:22.343Z,1004.27
2017-05-13T08:58:11.115Z,1004.31
2017-05-13T08:59:04.883Z,1004.34
2017-05-13T08:59:59.880Z,1004.37
2017-05-13T09:00:48.080Z,1004.37
2017-05-13T09:01:42.573Z,1004.37
2017-05-13T09:02:37.129Z,1004.38
2017-05-13T09:03:32.071Z,1004.39
2017-05-13T09:04:20.211Z,1004.43
2017-05-13T09:05:14.721Z,1004.40
2017-05-13T09:06:02.306Z,1004.42
2017-05-13T09:06:50.606Z,1004.43
2017-05-13T09:07:44.605Z,1004.44
2017-05-13T09:08:32.501Z,1004.41
2017-05-13T09:09:20.645Z,1004.40
2017-05-13T09:10:08.747Z,1004.41
2017-05-13T09:10:57.574Z,1004.48
2017-05-13T09:11:44.947Z,1004.52
2017-05-13T09:12:38.799Z,1004.50
2017-05-13T09:13:26.996Z,1004.55
2017-05-13T09:14:14.929Z,1004.55
2017-05-13T09:15:09.130Z,1004.57
2017-05-13T09:16:03.033Z,1004.53
2017-05-13T09:16:56.944Z,1004.57
2017-05-13T09:17:44.907Z,1004.58
2017-05-13T09:18:44.908Z,1004.58
2017-05-13T09:19:38.832Z,1004.54
2017-05-13T09:20:32.836Z,1004.47
2017-05-13T09:21:26.825Z,1004.48
2017-05-13T09:22:15.801Z,1004.47
2017-05-13T09:23:09.309Z,1004.47
2017-05-13T09:24:03.273Z,1004.41
2017-05-13T09:24:52.276Z,1004.43
2017-05-13T09:25:39.777Z,1004.43
2017-05-13T09:26:28.771Z,1004.41
2017-05-13T09:27:22.301Z,1004.41
2017-05-13T09:28:22.291Z,1004.36
2017-05-13T09:29:05.190Z,1004.35
2017-05-13T09:29:59.748Z,1004.32
2017-05-13T09:31:00.292Z,1004.35
2017-05-13T09:31:48.922Z,1004.40
2017-05-13T09:32:42.364Z,1004.32
2017-05-13T09:33:36.389Z,1004.31
2017-05-13T09:34:25.351Z,1004.27
2017-05-13T09:35:24.891Z,1004.23
2017-05-13T09:36:24.956Z,1004.31
2017-05-13T09:37:12.868Z,1004.46
2017-05-13T09:38:00.857Z,1004.40
2017-05-13T09:38:48.837Z,1004.36
2017-05-13T09:39:36.796Z,1004.47
2017-05-13T09:40:31.816Z,1004.79
2017-05-13T09:41:31.355Z,1004.72
2017-05-13T09:42:25.335Z,1004.61
2017-05-13T09:43:19.278Z,1004.58
2017-05-13T09:44:08.252Z,1004.66
2017-05-13T09:44:56.810Z,1004.73
2017-05-13T09:45:51.336Z,1004.60
2017-05-13T09:46:44.905Z,1004.63
2017-05-13T09:47:45.949Z,1004.63
2017-05-13T09:48:39.392Z,1004.64
2017-05-13T09:49:33.399Z,1004.68
2017-05-13T09:50:21.365Z,1004.67
2017-05-13T09:51:21.336Z,1004.71
2017-05-13T09:52:10.322Z,1004.72
2017-05-13T09:53:03.895Z,1004.66
2017-05-13T09:53:52.783Z,1004.61
2017-05-13T09:54:41.370Z,1004.64
2017-05-13T09:55:34.921Z,1004.70
2017-05-13T09:56:29.872Z,1004.70
2017-05-13T09:57:23.441Z,1004.65
2017-05-13T09:58:12.429Z,1004.61
2017-05-13T09:58:59.955Z,1004.61
2017-05-13T09:59:54.942Z,1004.67
2017-05-13T10:00:42.516Z,1004.79
2017-05-13T10:01:31.509Z,1004.64
2017-05-13T10:02:31.003Z,1004.72
2017-05-13T10:03:19.995Z,1004.63
2017-05-13T10:04:19.489Z,1004.53
2017-05-13T10:05:08.560Z,1004.51
2017-05-13T10:06:02.075Z,1004.41
2017-05-13T10:06:51.073Z,1004.37
2017-05-13T10:07:44.638Z,1004.31
2017-05-13T10:08:33.551Z,1004.25
2017-05-13T10:09:21.127Z,1004.21
2017-05-13T10:10:15.045Z,1004.25
2017-05-13T10:11:15.075Z,1004.28
2017-05-13T10:12:10.021Z,1004.37
2017-05-13T10:13:03.592Z,1004.44
2017-05-13T10:13:57.607Z,1004.50
2017-05-13T10:14:57.480Z,1004.55
2017-05-13T10:15:46.508Z,1004.53
2017-05-13T10:16:40.043Z,1004.47
2017-05-13T10:17:23.025Z,1004.48
2017-05-13T10:18:10.559Z,1004.49
2017-05-13T10:18:59.614Z,1004.42
2017-05-13T10:19:53.087Z,1004.41
2017-05-13T10:20:42.048Z,1004.45
2017-05-13T10:21:29.587Z,1004.35
2017-05-13T10:22:17.551Z,1004.36
2017-05-13T10:23:05.523Z,1004.42
2017-05-13T10:23:59.518Z,1004.38
2017-05-13T10:24:48.424Z,1004.35
2017-05-13T10:25:48.034Z,1004.39
2017-05-13T10:26:41.992Z,1004.68
2017-05-13T10:27:41.946Z,1004.59
2017-05-13T10:28:35.969Z,1004.53
2017-05-13T10:29:29.932Z,1004.60
2017-05-13T10:30:23.885Z,1004.60
2017-05-13T10:31:17.888Z,1004.57
2017-05-13T10:32:11.831Z,1004.46
2017-05-13T10:33:00.777Z,1004.49
2017-05-13T10:33:54.349Z,1004.12
2017-05-13T10:34:49.310Z,1004.33
2017-05-13T10:35:36.902Z,1004.51
2017-05-13T10:36:26.170Z,1004.66
2017-05-13T10:37:25.421Z,1004.60
2017-05-13T10:38:13.345Z,1004.41
2017-05-13T10:39:13.377Z,1004.32
2017-05-13T10:40:01.326Z,1004.34
2017-05-13T10:40:56.322Z,1004.32
2017-05-13T10:41:43.891Z,1004.26